sensor_id;sensor_type;location;lat;lon;timestamp;P1;durP1;ratioP1;P2;durP2;ratioP2
52268;SDS011;38224;50.950;4.100;2022-11-20T00:01:05;74.15;;;38.60;;
52268;SDS011;38224;50.950;4.100;2022-11-20T00:03:31;81.70;;;42.40;;
52268;SDS011;38224;50.950;4.100;2022-11-20T00:06:00;85.73;;;39.83;;
52268;SDS011;38224;50.950;4.100;2022-11-20T00:08:26;83.43;;;40.22;;
52268;SDS011;38224;50.950;4.100;2022-11-20T00:10:51;84.67;;;40.20;;
52268;SDS011;38224;50.950;4.100;2022-11-20T00:13:16;86.50;;;41.70;;
52268;SDS011;38224;50.950;4.100;2022-11-20T00:15:41;83.13;;;42.70;;
52268;SDS011;38224;50.950;4.100;2022-11-20T00:18:07;81.17;;;40.80;;
52268;SDS011;38224;50.950;4.100;2022-11-20T00:20:32;79.53;;;42.73;;
52268;SDS011;38224;50.950;4.100;2022-11-20T00:22:57;89.33;;;44.63;;
52268;SDS011;38224;50.950;4.100;2022-11-20T00:25:22;92.32;;;43.95;;
52268;SDS011;38224;50.950;4.100;2022-11-20T00:27:48;88.33;;;43.37;;
52268;SDS011;38224;50.950;4.100;2022-11-20T00:30:13;97.32;;;45.97;;
52268;SDS011;38224;50.950;4.100;2022-11-20T00:32:38;98.55;;;44.58;;
52268;SDS011;38224;50.950;4.100;2022-11-20T00:35:03;92.18;;;45.05;;
52268;SDS011;38224;50.950;4.100;2022-11-20T00:37:29;92.40;;;43.78;;
52268;SDS011;38224;50.950;4.100;2022-11-20T00:39:54;97.40;;;44.27;;
52268;SDS011;38224;50.950;4.100;2022-11-20T00:42:19;80.10;;;44.03;;
52268;SDS011;38224;50.950;4.100;2022-11-20T00:44:44;87.10;;;41.80;;
52268;SDS011;38224;50.950;4.100;2022-11-20T00:47:10;86.60;;;43.10;;
52268;SDS011;38224;50.950;4.100;2022-11-20T00:49:35;87.15;;;42.58;;
52268;SDS011;38224;50.950;4.100;2022-11-20T00:52:00;83.87;;;43.87;;
52268;SDS011;38224;50.950;4.100;2022-11-20T00:54:25;92.83;;;46.93;;
52268;SDS011;38224;50.950;4.100;2022-11-20T00:56:52;87.43;;;45.57;;
52268;SDS011;38224;50.950;4.100;2022-11-20T00:59:17;86.32;;;45.15;;
52268;SDS011;38224;50.950;4.100;2022-11-20T01:01:43;84.60;;;46.00;;
52268;SDS011;38224;50.950;4.100;2022-11-20T01:04:08;96.23;;;46.83;;
52268;SDS011;38224;50.950;4.100;2022-11-20T01:06:34;85.87;;;43.20;;
52268;SDS011;38224;50.950;4.100;2022-11-20T01:09:02;88.20;;;44.95;;
52268;SDS011;38224;50.950;4.100;2022-11-20T01:11:29;90.15;;;45.40;;
52268;SDS011;38224;50.950;4.100;2022-11-20T01:13:55;87.38;;;47.25;;
52268;SDS011;38224;50.950;4.100;2022-11-20T01:16:22;88.38;;;46.00;;
52268;SDS011;38224;50.950;4.100;2022-11-20T01:18:49;81.63;;;43.80;;
52268;SDS011;38224;50.950;4.100;2022-11-20T01:21:15;83.15;;;43.90;;
52268;SDS011;38224;50.950;4.100;2022-11-20T01:23:42;84.43;;;45.53;;
52268;SDS011;38224;50.950;4.100;2022-11-20T01:26:08;81.05;;;43.85;;
52268;SDS011;38224;50.950;4.100;2022-11-20T01:28:34;84.97;;;43.38;;
52268;SDS011;38224;50.950;4.100;2022-11-20T01:31:00;83.13;;;45.88;;
52268;SDS011;38224;50.950;4.100;2022-11-20T01:33:25;83.03;;;44.90;;
52268;SDS011;38224;50.950;4.100;2022-11-20T01:35:51;80.72;;;43.17;;
52268;SDS011;38224;50.950;4.100;2022-11-20T01:38:17;84.97;;;42.28;;
52268;SDS011;38224;50.950;4.100;2022-11-20T01:40:42;91.35;;;44.45;;
52268;SDS011;38224;50.950;4.100;2022-11-20T01:43:14;85.47;;;43.80;;
52268;SDS011;38224;50.950;4.100;2022-11-20T01:48:13;92.05;;;47.67;;
52268;SDS011;38224;50.950;4.100;2022-11-20T01:50:39;92.93;;;47.15;;
52268;SDS011;38224;50.950;4.100;2022-11-20T01:53:06;100.25;;;49.13;;
52268;SDS011;38224;50.950;4.100;2022-11-20T01:55:34;94.68;;;48.65;;
52268;SDS011;38224;50.950;4.100;2022-11-20T01:57:59;92.53;;;46.65;;
52268;SDS011;38224;50.950;4.100;2022-11-20T02:00:25;97.13;;;46.70;;
52268;SDS011;38224;50.950;4.100;2022-11-20T02:02:52;85.35;;;46.42;;
52268;SDS011;38224;50.950;4.100;2022-11-20T02:05:23;95.15;;;47.53;;
52268;SDS011;38224;50.950;4.100;2022-11-20T02:07:48;92.47;;;46.08;;
52268;SDS011;38224;50.950;4.100;2022-11-20T02:10:14;86.57;;;44.47;;
52268;SDS011;38224;50.950;4.100;2022-11-20T02:12:40;81.35;;;44.88;;
52268;SDS011;38224;50.950;4.100;2022-11-20T02:15:24;87.75;;;45.03;;
52268;SDS011;38224;50.950;4.100;2022-11-20T02:17:49;95.35;;;45.67;;
52268;SDS011;38224;50.950;4.100;2022-11-20T02:20:14;103.20;;;47.42;;
52268;SDS011;38224;50.950;4.100;2022-11-20T02:22:48;93.03;;;46.50;;
52268;SDS011;38224;50.950;4.100;2022-11-20T02:25:15;93.95;;;45.72;;
52268;SDS011;38224;50.950;4.100;2022-11-20T02:27:41;96.15;;;46.20;;
52268;SDS011;38224;50.950;4.100;2022-11-20T02:30:06;98.67;;;46.93;;
52268;SDS011;38224;50.950;4.100;2022-11-20T02:32:34;92.80;;;45.03;;
52268;SDS011;38224;50.950;4.100;2022-11-20T02:35:09;98.25;;;46.13;;
52268;SDS011;38224;50.950;4.100;2022-11-20T02:37:35;99.20;;;46.50;;
52268;SDS011;38224;50.950;4.100;2022-11-20T02:40:01;94.60;;;46.30;;
52268;SDS011;38224;50.950;4.100;2022-11-20T02:42:27;105.68;;;46.72;;
52268;SDS011;38224;50.950;4.100;2022-11-20T02:44:52;106.50;;;48.10;;
52268;SDS011;38224;50.950;4.100;2022-11-20T02:47:17;109.97;;;47.40;;
52268;SDS011;38224;50.950;4.100;2022-11-20T02:49:42;107.33;;;48.57;;
52268;SDS011;38224;50.950;4.100;2022-11-20T02:52:07;99.60;;;46.97;;
52268;SDS011;38224;50.950;4.100;2022-11-20T02:54:33;103.93;;;49.50;;
52268;SDS011;38224;50.950;4.100;2022-11-20T02:56:58;112.93;;;51.53;;
52268;SDS011;38224;50.950;4.100;2022-11-20T02:59:23;123.33;;;53.70;;
52268;SDS011;38224;50.950;4.100;2022-11-20T03:01:49;130.57;;;54.45;;
52268;SDS011;38224;50.950;4.100;2022-11-20T03:04:14;121.57;;;52.70;;
52268;SDS011;38224;50.950;4.100;2022-11-20T03:06:39;120.07;;;52.47;;
52268;SDS011;38224;50.950;4.100;2022-11-20T03:09:04;113.60;;;49.33;;
52268;SDS011;38224;50.950;4.100;2022-11-20T03:11:30;111.70;;;50.00;;
52268;SDS011;38224;50.950;4.100;2022-11-20T03:13:55;112.80;;;48.83;;
52268;SDS011;38224;50.950;4.100;2022-11-20T03:16:21;110.77;;;49.03;;
52268;SDS011;38224;50.950;4.100;2022-11-20T03:18:47;98.72;;;44.22;;
52268;SDS011;38224;50.950;4.100;2022-11-20T03:21:12;99.72;;;45.80;;
52268;SDS011;38224;50.950;4.100;2022-11-20T03:23:37;99.45;;;45.33;;
52268;SDS011;38224;50.950;4.100;2022-11-20T03:28:37;106.10;;;46.90;;
52268;SDS011;38224;50.950;4.100;2022-11-20T03:31:06;101.63;;;46.15;;
52268;SDS011;38224;50.950;4.100;2022-11-20T03:33:32;107.57;;;47.63;;
52268;SDS011;38224;50.950;4.100;2022-11-20T03:36:00;109.07;;;47.60;;
52268;SDS011;38224;50.950;4.100;2022-11-20T03:38:28;112.30;;;48.08;;
52268;SDS011;38224;50.950;4.100;2022-11-20T03:40:57;108.10;;;46.80;;
52268;SDS011;38224;50.950;4.100;2022-11-20T03:43:22;115.82;;;51.42;;
52268;SDS011;38224;50.950;4.100;2022-11-20T03:45:47;132.67;;;49.80;;
52268;SDS011;38224;50.950;4.100;2022-11-20T03:48:13;125.13;;;50.77;;
52268;SDS011;38224;50.950;4.100;2022-11-20T03:50:38;126.37;;;52.43;;
52268;SDS011;38224;50.950;4.100;2022-11-20T03:53:03;125.43;;;52.80;;
52268;SDS011;38224;50.950;4.100;2022-11-20T03:55:28;126.13;;;50.77;;
52268;SDS011;38224;50.950;4.100;2022-11-20T03:57:53;120.10;;;50.13;;
52268;SDS011;38224;50.950;4.100;2022-11-20T04:00:19;118.30;;;51.37;;
52268;SDS011;38224;50.950;4.100;2022-11-20T04:02:44;110.23;;;49.03;;
52268;SDS011;38224;50.950;4.100;2022-11-20T04:05:09;103.57;;;45.77;;
52268;SDS011;38224;50.950;4.100;2022-11-20T04:07:34;108.30;;;47.73;;
52268;SDS011;38224;50.950;4.100;2022-11-20T04:10:00;103.80;;;44.53;;
52268;SDS011;38224;50.950;4.100;2022-11-20T04:12:25;106.77;;;45.57;;
52268;SDS011;38224;50.950;4.100;2022-11-20T04:14:50;101.73;;;47.77;;
52268;SDS011;38224;50.950;4.100;2022-11-20T04:17:16;107.40;;;47.27;;
52268;SDS011;38224;50.950;4.100;2022-11-20T04:19:41;100.72;;;45.20;;
52268;SDS011;38224;50.950;4.100;2022-11-20T04:22:06;112.28;;;48.03;;
52268;SDS011;38224;50.950;4.100;2022-11-20T04:24:31;117.10;;;51.30;;
52268;SDS011;38224;50.950;4.100;2022-11-20T04:26:57;113.30;;;49.20;;
52268;SDS011;38224;50.950;4.100;2022-11-20T04:29:22;119.37;;;48.83;;
52268;SDS011;38224;50.950;4.100;2022-11-20T04:31:47;129.90;;;49.33;;
52268;SDS011;38224;50.950;4.100;2022-11-20T04:34:12;128.63;;;49.93;;
52268;SDS011;38224;50.950;4.100;2022-11-20T04:36:38;141.35;;;53.25;;
52268;SDS011;38224;50.950;4.100;2022-11-20T04:39:04;128.83;;;50.87;;
52268;SDS011;38224;50.950;4.100;2022-11-20T04:41:31;133.13;;;52.50;;
52268;SDS011;38224;50.950;4.100;2022-11-20T04:43:57;121.57;;;50.90;;
52268;SDS011;38224;50.950;4.100;2022-11-20T04:46:24;113.43;;;48.88;;
52268;SDS011;38224;50.950;4.100;2022-11-20T04:48:49;124.68;;;50.72;;
52268;SDS011;38224;50.950;4.100;2022-11-20T04:51:15;122.30;;;49.80;;
52268;SDS011;38224;50.950;4.100;2022-11-20T04:53:40;120.70;;;50.73;;
52268;SDS011;38224;50.950;4.100;2022-11-20T04:56:06;127.20;;;50.53;;
52268;SDS011;38224;50.950;4.100;2022-11-20T04:58:32;123.65;;;50.90;;
52268;SDS011;38224;50.950;4.100;2022-11-20T05:01:01;130.68;;;51.92;;
52268;SDS011;38224;50.950;4.100;2022-11-20T05:03:26;133.38;;;51.92;;
52268;SDS011;38224;50.950;4.100;2022-11-20T05:05:52;129.00;;;51.43;;
52268;SDS011;38224;50.950;4.100;2022-11-20T05:08:17;115.30;;;49.17;;
52268;SDS011;38224;50.950;4.100;2022-11-20T05:10:42;111.87;;;48.77;;
52268;SDS011;38224;50.950;4.100;2022-11-20T05:13:07;116.40;;;47.33;;
52268;SDS011;38224;50.950;4.100;2022-11-20T05:15:33;115.13;;;48.93;;
52268;SDS011;38224;50.950;4.100;2022-11-20T05:17:58;111.80;;;47.13;;
52268;SDS011;38224;50.950;4.100;2022-11-20T05:20:23;127.27;;;51.20;;
52268;SDS011;38224;50.950;4.100;2022-11-20T05:22:48;129.40;;;49.00;;
52268;SDS011;38224;50.950;4.100;2022-11-20T05:25:13;129.13;;;51.33;;
52268;SDS011;38224;50.950;4.100;2022-11-20T05:27:39;130.73;;;49.38;;
52268;SDS011;38224;50.950;4.100;2022-11-20T05:30:04;138.17;;;52.30;;
52268;SDS011;38224;50.950;4.100;2022-11-20T05:32:30;148.70;;;53.40;;
52268;SDS011;38224;50.950;4.100;2022-11-20T05:34:55;132.73;;;54.22;;
52268;SDS011;38224;50.950;4.100;2022-11-20T05:37:20;141.30;;;54.47;;
52268;SDS011;38224;50.950;4.100;2022-11-20T05:39:45;152.73;;;55.85;;
52268;SDS011;38224;50.950;4.100;2022-11-20T05:42:11;172.27;;;64.13;;
52268;SDS011;38224;50.950;4.100;2022-11-20T05:44:54;150.52;;;56.45;;
52268;SDS011;38224;50.950;4.100;2022-11-20T05:47:20;161.80;;;57.50;;
52268;SDS011;38224;50.950;4.100;2022-11-20T05:49:45;168.27;;;56.47;;
52268;SDS011;38224;50.950;4.100;2022-11-20T05:52:10;164.47;;;56.10;;
52268;SDS011;38224;50.950;4.100;2022-11-20T05:54:35;149.03;;;52.60;;
52268;SDS011;38224;50.950;4.100;2022-11-20T05:57:00;155.93;;;54.53;;
52268;SDS011;38224;50.950;4.100;2022-11-20T05:59:26;154.13;;;54.60;;
52268;SDS011;38224;50.950;4.100;2022-11-20T06:01:51;168.50;;;55.83;;
52268;SDS011;38224;50.950;4.100;2022-11-20T06:04:16;171.37;;;54.97;;
52268;SDS011;38224;50.950;4.100;2022-11-20T06:06:41;163.20;;;55.10;;
52268;SDS011;38224;50.950;4.100;2022-11-20T06:09:07;173.70;;;53.57;;
52268;SDS011;38224;50.950;4.100;2022-11-20T06:11:32;159.27;;;52.85;;
52268;SDS011;38224;50.950;4.100;2022-11-20T06:13:57;171.00;;;56.23;;
52268;SDS011;38224;50.950;4.100;2022-11-20T06:16:22;171.93;;;57.50;;
52268;SDS011;38224;50.950;4.100;2022-11-20T06:18:48;151.27;;;54.97;;
52268;SDS011;38224;50.950;4.100;2022-11-20T06:21:14;168.13;;;57.38;;
52268;SDS011;38224;50.950;4.100;2022-11-20T06:23:40;186.90;;;58.92;;
52268;SDS011;38224;50.950;4.100;2022-11-20T06:26:15;161.20;;;56.00;;
52268;SDS011;38224;50.950;4.100;2022-11-20T06:28:41;149.43;;;55.03;;
52268;SDS011;38224;50.950;4.100;2022-11-20T06:31:06;172.95;;;54.15;;
52268;SDS011;38224;50.950;4.100;2022-11-20T06:33:33;153.25;;;54.47;;
52268;SDS011;38224;50.950;4.100;2022-11-20T06:35:58;161.40;;;54.10;;
52268;SDS011;38224;50.950;4.100;2022-11-20T06:38:24;153.95;;;52.50;;
52268;SDS011;38224;50.950;4.100;2022-11-20T06:40:50;160.57;;;53.85;;
52268;SDS011;38224;50.950;4.100;2022-11-20T06:43:15;154.90;;;54.10;;
52268;SDS011;38224;50.950;4.100;2022-11-20T06:45:41;152.90;;;52.97;;
52268;SDS011;38224;50.950;4.100;2022-11-20T06:48:06;158.10;;;55.17;;
52268;SDS011;38224;50.950;4.100;2022-11-20T06:50:31;144.98;;;51.60;;
52268;SDS011;38224;50.950;4.100;2022-11-20T06:52:56;155.20;;;52.80;;
52268;SDS011;38224;50.950;4.100;2022-11-20T06:55:24;143.63;;;51.22;;
52268;SDS011;38224;50.950;4.100;2022-11-20T06:57:50;146.23;;;51.73;;
52268;SDS011;38224;50.950;4.100;2022-11-20T07:00:15;154.52;;;52.65;;
52268;SDS011;38224;50.950;4.100;2022-11-20T07:02:40;161.70;;;53.33;;
52268;SDS011;38224;50.950;4.100;2022-11-20T07:05:06;158.00;;;54.77;;
52268;SDS011;38224;50.950;4.100;2022-11-20T07:07:31;146.00;;;52.05;;
52268;SDS011;38224;50.950;4.100;2022-11-20T07:09:56;150.77;;;50.80;;
52268;SDS011;38224;50.950;4.100;2022-11-20T07:12:21;133.40;;;49.38;;
52268;SDS011;38224;50.950;4.100;2022-11-20T07:14:47;151.10;;;53.87;;
52268;SDS011;38224;50.950;4.100;2022-11-20T07:17:12;151.55;;;51.78;;
52268;SDS011;38224;50.950;4.100;2022-11-20T07:19:37;144.23;;;50.92;;
52268;SDS011;38224;50.950;4.100;2022-11-20T07:22:03;147.73;;;52.00;;
52268;SDS011;38224;50.950;4.100;2022-11-20T07:24:28;142.20;;;52.67;;
52268;SDS011;38224;50.950;4.100;2022-11-20T07:26:53;150.57;;;50.57;;
52268;SDS011;38224;50.950;4.100;2022-11-20T07:29:18;146.83;;;51.40;;
52268;SDS011;38224;50.950;4.100;2022-11-20T07:31:43;145.83;;;49.60;;
52268;SDS011;38224;50.950;4.100;2022-11-20T07:34:09;151.95;;;53.55;;
52268;SDS011;38224;50.950;4.100;2022-11-20T07:36:34;144.73;;;48.33;;
52268;SDS011;38224;50.950;4.100;2022-11-20T07:38:59;148.70;;;51.45;;
52268;SDS011;38224;50.950;4.100;2022-11-20T07:41:24;138.60;;;47.90;;
52268;SDS011;38224;50.950;4.100;2022-11-20T07:43:50;135.97;;;48.50;;
52268;SDS011;38224;50.950;4.100;2022-11-20T07:46:15;144.90;;;49.60;;
52268;SDS011;38224;50.950;4.100;2022-11-20T07:48:40;139.93;;;49.23;;
52268;SDS011;38224;50.950;4.100;2022-11-20T07:51:05;144.30;;;48.27;;
52268;SDS011;38224;50.950;4.100;2022-11-20T07:53:31;141.27;;;48.75;;
52268;SDS011;38224;50.950;4.100;2022-11-20T07:55:59;143.67;;;49.33;;
52268;SDS011;38224;50.950;4.100;2022-11-20T07:58:24;136.55;;;47.60;;
52268;SDS011;38224;50.950;4.100;2022-11-20T08:00:49;135.55;;;48.80;;
52268;SDS011;38224;50.950;4.100;2022-11-20T08:03:14;127.73;;;43.80;;
52268;SDS011;38224;50.950;4.100;2022-11-20T08:05:40;136.48;;;47.80;;
52268;SDS011;38224;50.950;4.100;2022-11-20T08:08:05;146.80;;;49.93;;
52268;SDS011;38224;50.950;4.100;2022-11-20T08:10:31;145.98;;;51.03;;
52268;SDS011;38224;50.950;4.100;2022-11-20T08:12:57;148.35;;;47.97;;
52268;SDS011;38224;50.950;4.100;2022-11-20T08:15:41;138.82;;;49.05;;
52268;SDS011;38224;50.950;4.100;2022-11-20T08:18:10;142.48;;;47.55;;
52268;SDS011;38224;50.950;4.100;2022-11-20T08:20:36;152.48;;;49.38;;
52268;SDS011;38224;50.950;4.100;2022-11-20T08:23:02;154.43;;;48.55;;
52268;SDS011;38224;50.950;4.100;2022-11-20T08:25:28;142.50;;;47.05;;
52268;SDS011;38224;50.950;4.100;2022-11-20T08:27:54;143.60;;;48.25;;
52268;SDS011;38224;50.950;4.100;2022-11-20T08:30:21;142.57;;;47.75;;
52268;SDS011;38224;50.950;4.100;2022-11-20T08:32:46;144.87;;;44.60;;
52268;SDS011;38224;50.950;4.100;2022-11-20T08:35:12;148.90;;;47.50;;
52268;SDS011;38224;50.950;4.100;2022-11-20T08:37:37;141.77;;;45.47;;
52268;SDS011;38224;50.950;4.100;2022-11-20T08:40:06;170.23;;;50.63;;
52268;SDS011;38224;50.950;4.100;2022-11-20T08:42:31;156.85;;;50.03;;
52268;SDS011;38224;50.950;4.100;2022-11-20T08:44:57;184.57;;;58.93;;
52268;SDS011;38224;50.950;4.100;2022-11-20T08:47:22;169.70;;;62.37;;
52268;SDS011;38224;50.950;4.100;2022-11-20T08:49:47;174.13;;;55.27;;
52268;SDS011;38224;50.950;4.100;2022-11-20T08:52:12;176.77;;;60.70;;
52268;SDS011;38224;50.950;4.100;2022-11-20T08:54:38;170.93;;;59.60;;
52268;SDS011;38224;50.950;4.100;2022-11-20T08:57:03;146.30;;;47.78;;
52268;SDS011;38224;50.950;4.100;2022-11-20T08:59:28;138.53;;;51.43;;
52268;SDS011;38224;50.950;4.100;2022-11-20T09:01:53;158.93;;;49.15;;
52268;SDS011;38224;50.950;4.100;2022-11-20T09:04:19;139.48;;;49.67;;
52268;SDS011;38224;50.950;4.100;2022-11-20T09:06:44;133.30;;;45.78;;
52268;SDS011;38224;50.950;4.100;2022-11-20T09:09:09;131.67;;;50.40;;
52268;SDS011;38224;50.950;4.100;2022-11-20T09:11:34;119.57;;;40.67;;
52268;SDS011;38224;50.950;4.100;2022-11-20T09:14:01;112.32;;;40.72;;
52268;SDS011;38224;50.950;4.100;2022-11-20T09:16:27;109.82;;;39.00;;
52268;SDS011;38224;50.950;4.100;2022-11-20T09:18:52;102.80;;;40.83;;
52268;SDS011;38224;50.950;4.100;2022-11-20T09:21:18;106.23;;;38.93;;
52268;SDS011;38224;50.950;4.100;2022-11-20T09:23:43;104.40;;;38.75;;
52268;SDS011;38224;50.950;4.100;2022-11-20T09:26:09;96.93;;;40.05;;
52268;SDS011;38224;50.950;4.100;2022-11-20T09:28:35;98.65;;;37.90;;
52268;SDS011;38224;50.950;4.100;2022-11-20T09:31:00;95.63;;;37.33;;
52268;SDS011;38224;50.950;4.100;2022-11-20T09:33:26;94.13;;;38.97;;
52268;SDS011;38224;50.950;4.100;2022-11-20T09:35:51;100.82;;;39.17;;
52268;SDS011;38224;50.950;4.100;2022-11-20T09:38:16;96.63;;;39.90;;
52268;SDS011;38224;50.950;4.100;2022-11-20T09:40:58;95.20;;;39.63;;
52268;SDS011;38224;50.950;4.100;2022-11-20T09:46:20;83.10;;;35.13;;
52268;SDS011;38224;50.950;4.100;2022-11-20T09:48:48;85.78;;;37.45;;
52268;SDS011;38224;50.950;4.100;2022-11-20T09:51:28;86.57;;;38.00;;
52268;SDS011;38224;50.950;4.100;2022-11-20T09:56:58;78.28;;;32.63;;
52268;SDS011;38224;50.950;4.100;2022-11-20T09:59:43;85.55;;;35.78;;
52268;SDS011;38224;50.950;4.100;2022-11-20T10:02:14;68.90;;;27.88;;
52268;SDS011;38224;50.950;4.100;2022-11-20T10:04:42;70.15;;;29.48;;
52268;SDS011;38224;50.950;4.100;2022-11-20T10:07:12;61.83;;;27.60;;
52268;SDS011;38224;50.950;4.100;2022-11-20T10:09:40;60.55;;;29.17;;
52268;SDS011;38224;50.950;4.100;2022-11-20T10:19:53;46.80;;;24.10;;
52268;SDS011;38224;50.950;4.100;2022-11-20T10:22:27;47.42;;;22.63;;
52268;SDS011;38224;50.950;4.100;2022-11-20T10:27:34;35.85;;;18.27;;
52268;SDS011;38224;50.950;4.100;2022-11-20T10:32:40;33.53;;;16.40;;
52268;SDS011;38224;50.950;4.100;2022-11-20T10:37:31;27.17;;;12.30;;
52268;SDS011;38224;50.950;4.100;2022-11-20T10:39:59;27.05;;;11.48;;
52268;SDS011;38224;50.950;4.100;2022-11-20T10:42:29;23.00;;;10.77;;
52268;SDS011;38224;50.950;4.100;2022-11-20T10:45:02;22.92;;;11.15;;
52268;SDS011;38224;50.950;4.100;2022-11-20T10:49:54;22.85;;;9.23;;
52268;SDS011;38224;50.950;4.100;2022-11-20T10:55:45;19.63;;;8.63;;
52268;SDS011;38224;50.950;4.100;2022-11-20T11:00:33;17.98;;;8.68;;
52268;SDS011;38224;50.950;4.100;2022-11-20T11:02:58;18.80;;;7.88;;
52268;SDS011;38224;50.950;4.100;2022-11-20T11:07:54;20.90;;;8.57;;
52268;SDS011;38224;50.950;4.100;2022-11-20T11:10:24;14.32;;;5.88;;
52268;SDS011;38224;50.950;4.100;2022-11-20T11:12:51;16.42;;;6.53;;
52268;SDS011;38224;50.950;4.100;2022-11-20T11:15:27;11.90;;;5.82;;
52268;SDS011;38224;50.950;4.100;2022-11-20T11:17:52;15.27;;;5.55;;
52268;SDS011;38224;50.950;4.100;2022-11-20T11:20:22;11.13;;;5.10;;
52268;SDS011;38224;50.950;4.100;2022-11-20T11:22:54;11.77;;;4.45;;
52268;SDS011;38224;50.950;4.100;2022-11-20T11:27:48;6.60;;;3.88;;
52268;SDS011;38224;50.950;4.100;2022-11-20T11:30:14;11.00;;;5.03;;
52268;SDS011;38224;50.950;4.100;2022-11-20T11:32:40;9.70;;;3.60;;
52268;SDS011;38224;50.950;4.100;2022-11-20T11:35:06;14.60;;;4.22;;
52268;SDS011;38224;50.950;4.100;2022-11-20T11:37:37;7.85;;;3.45;;
52268;SDS011;38224;50.950;4.100;2022-11-20T11:40:03;11.30;;;3.72;;
52268;SDS011;38224;50.950;4.100;2022-11-20T11:42:29;11.60;;;3.95;;
52268;SDS011;38224;50.950;4.100;2022-11-20T11:44:55;11.80;;;3.72;;
52268;SDS011;38224;50.950;4.100;2022-11-20T11:50:12;9.53;;;4.00;;
52268;SDS011;38224;50.950;4.100;2022-11-20T11:55:05;11.10;;;3.47;;
52268;SDS011;38224;50.950;4.100;2022-11-20T11:57:49;10.38;;;5.05;;
52268;SDS011;38224;50.950;4.100;2022-11-20T12:00:17;13.63;;;4.13;;
52268;SDS011;38224;50.950;4.100;2022-11-20T12:07:47;11.30;;;4.35;;
52268;SDS011;38224;50.950;4.100;2022-11-20T12:10:29;11.07;;;4.60;;
52268;SDS011;38224;50.950;4.100;2022-11-20T12:15:44;12.07;;;4.90;;
52268;SDS011;38224;50.950;4.100;2022-11-20T12:18:13;14.50;;;5.72;;
52268;SDS011;38224;50.950;4.100;2022-11-20T12:20:41;15.52;;;5.20;;
52268;SDS011;38224;50.950;4.100;2022-11-20T12:25:59;22.13;;;6.22;;
52268;SDS011;38224;50.950;4.100;2022-11-20T12:31:17;13.75;;;6.10;;
52268;SDS011;38224;50.950;4.100;2022-11-20T12:33:52;18.58;;;5.95;;
52268;SDS011;38224;50.950;4.100;2022-11-20T12:38:54;21.50;;;7.53;;
52268;SDS011;38224;50.950;4.100;2022-11-20T12:44:32;20.30;;;6.70;;
52268;SDS011;38224;50.950;4.100;2022-11-20T12:52:47;19.77;;;7.18;;
52268;SDS011;38224;50.950;4.100;2022-11-20T12:57:47;12.80;;;6.20;;
52268;SDS011;38224;50.950;4.100;2022-11-20T13:07:32;16.75;;;6.70;;
52268;SDS011;38224;50.950;4.100;2022-11-20T13:09:58;12.57;;;7.05;;
52268;SDS011;38224;50.950;4.100;2022-11-20T13:12:25;14.38;;;4.57;;
52268;SDS011;38224;50.950;4.100;2022-11-20T13:17:31;11.65;;;5.32;;
52268;SDS011;38224;50.950;4.100;2022-11-20T13:19:58;10.70;;;5.22;;
52268;SDS011;38224;50.950;4.100;2022-11-20T13:22:27;11.63;;;5.97;;
52268;SDS011;38224;50.950;4.100;2022-11-20T13:24:53;11.27;;;5.78;;
52268;SDS011;38224;50.950;4.100;2022-11-20T13:27:19;10.63;;;5.18;;
52268;SDS011;38224;50.950;4.100;2022-11-20T13:29:46;10.77;;;5.18;;
52268;SDS011;38224;50.950;4.100;2022-11-20T13:32:16;10.50;;;5.30;;
52268;SDS011;38224;50.950;4.100;2022-11-20T13:34:52;8.02;;;5.15;;
52268;SDS011;38224;50.950;4.100;2022-11-20T13:39:52;10.30;;;4.68;;
52268;SDS011;38224;50.950;4.100;2022-11-20T13:44:47;10.93;;;4.97;;
52268;SDS011;38224;50.950;4.100;2022-11-20T13:47:22;10.73;;;4.38;;
52268;SDS011;38224;50.950;4.100;2022-11-20T13:49:48;13.40;;;5.47;;
52268;SDS011;38224;50.950;4.100;2022-11-20T13:57:30;7.28;;;4.25;;
52268;SDS011;38224;50.950;4.100;2022-11-20T14:00:03;5.22;;;3.67;;
52268;SDS011;38224;50.950;4.100;2022-11-20T14:02:29;5.85;;;4.18;;
52268;SDS011;38224;50.950;4.100;2022-11-20T14:04:57;7.50;;;4.85;;
52268;SDS011;38224;50.950;4.100;2022-11-20T14:07:24;7.10;;;4.68;;
52268;SDS011;38224;50.950;4.100;2022-11-20T14:09:59;7.35;;;3.97;;
52268;SDS011;38224;50.950;4.100;2022-11-20T14:12:31;5.28;;;3.80;;
52268;SDS011;38224;50.950;4.100;2022-11-20T14:14:56;7.95;;;5.45;;
52268;SDS011;38224;50.950;4.100;2022-11-20T14:19:48;7.10;;;4.80;;
52268;SDS011;38224;50.950;4.100;2022-11-20T14:22:21;10.50;;;6.22;;
52268;SDS011;38224;50.950;4.100;2022-11-20T14:24:47;8.23;;;5.28;;
52268;SDS011;38224;50.950;4.100;2022-11-20T14:27:17;6.25;;;4.65;;
52268;SDS011;38224;50.950;4.100;2022-11-20T14:29:43;8.18;;;5.88;;
52268;SDS011;38224;50.950;4.100;2022-11-20T14:32:09;8.13;;;5.13;;
52268;SDS011;38224;50.950;4.100;2022-11-20T14:34:39;8.98;;;6.47;;
52268;SDS011;38224;50.950;4.100;2022-11-20T14:37:05;18.35;;;11.88;;
52268;SDS011;38224;50.950;4.100;2022-11-20T14:39:35;13.88;;;7.97;;
52268;SDS011;38224;50.950;4.100;2022-11-20T14:42:01;15.73;;;8.02;;
52268;SDS011;38224;50.950;4.100;2022-11-20T14:44:27;11.20;;;7.40;;
52268;SDS011;38224;50.950;4.100;2022-11-20T14:46:54;9.70;;;7.60;;
52268;SDS011;38224;50.950;4.100;2022-11-20T14:49:20;14.15;;;7.22;;
52268;SDS011;38224;50.950;4.100;2022-11-20T14:51:45;12.50;;;8.20;;
52268;SDS011;38224;50.950;4.100;2022-11-20T14:54:20;11.00;;;7.82;;
52268;SDS011;38224;50.950;4.100;2022-11-20T14:56:57;8.82;;;6.90;;
52268;SDS011;38224;50.950;4.100;2022-11-20T14:59:23;11.07;;;8.50;;
52268;SDS011;38224;50.950;4.100;2022-11-20T15:02:03;11.60;;;8.50;;
52268;SDS011;38224;50.950;4.100;2022-11-20T15:04:29;17.13;;;9.68;;
52268;SDS011;38224;50.950;4.100;2022-11-20T15:06:55;12.80;;;7.73;;
52268;SDS011;38224;50.950;4.100;2022-11-20T15:09:21;10.93;;;7.70;;
52268;SDS011;38224;50.950;4.100;2022-11-20T15:11:54;14.52;;;7.53;;
52268;SDS011;38224;50.950;4.100;2022-11-20T15:14:20;13.52;;;7.22;;
52268;SDS011;38224;50.950;4.100;2022-11-20T15:16:45;10.65;;;7.07;;
52268;SDS011;38224;50.950;4.100;2022-11-20T15:19:17;14.53;;;6.43;;
52268;SDS011;38224;50.950;4.100;2022-11-20T15:21:43;14.70;;;7.47;;
52268;SDS011;38224;50.950;4.100;2022-11-20T15:24:08;12.03;;;6.60;;
52268;SDS011;38224;50.950;4.100;2022-11-20T15:26:33;15.85;;;6.25;;
52268;SDS011;38224;50.950;4.100;2022-11-20T15:28:59;10.70;;;5.85;;
52268;SDS011;38224;50.950;4.100;2022-11-20T15:31:24;15.90;;;6.97;;
52268;SDS011;38224;50.950;4.100;2022-11-20T15:33:50;29.48;;;16.27;;
52268;SDS011;38224;50.950;4.100;2022-11-20T15:36:15;20.13;;;9.40;;
52268;SDS011;38224;50.950;4.100;2022-11-20T15:38:41;20.15;;;9.00;;
52268;SDS011;38224;50.950;4.100;2022-11-20T15:41:06;23.73;;;7.87;;
52268;SDS011;38224;50.950;4.100;2022-11-20T15:43:31;27.95;;;7.47;;
52268;SDS011;38224;50.950;4.100;2022-11-20T15:45:59;24.47;;;7.90;;
52268;SDS011;38224;50.950;4.100;2022-11-20T15:48:32;29.05;;;7.90;;
52268;SDS011;38224;50.950;4.100;2022-11-20T15:51:03;23.00;;;6.43;;
52268;SDS011;38224;50.950;4.100;2022-11-20T15:53:30;18.70;;;5.38;;